Terminal Aerodrome Forecast
Issued by NWS Austin/San Antonio, TX

Home | Current Version | Previous Version | Text Only | Print | Product List | Glossary On
Versions: 1 2 3 4 5 6 7 8 9 10 11 12 13
000
FTUS44 KEWX 272300
TAFSAT
TAF
KSAT 272323Z 2800/2906 18005KT P6SM SCT250
     FM280300 VRB02KT P6SM BKN200
     FM281800 17010KT P6SM BKN150=

USA.gov is the U.S. government's official web portal to all federal, state and local government web resources and services.